Time;durP1;ratioP1;P1;durP2;ratioP2;P2;SDS_P1;SDS_P2;PMS_P1;PMS_P2;Temp;Humidity;BMP_temperature;BMP_pressure;BME280_temperature;BME280_humidity;BME280_pressure;Samples;Min_cycle;Max_cycle;Signal;HPM_P1;HPM_P2
2022/02/05 00:03:15;;;;;;;20.10;11.48;;;;;;;;;;10366657;28;20871;-60
2022/02/05 00:08:34;;;;;;;18.63;10.18;;;;;;;;;;10367711;28;20041;-60
2022/02/05 00:40:04;;;;;;;20.30;12.10;;;;;;;;;;10373562;28;20026;-59
2022/02/05 00:45:08;;;;;;;22.92;11.30;;;;;;;;;;10370853;28;20057;-60
2022/02/05 00:50:15;;;;;;;21.15;11.65;;;;;;;;;;10373650;28;20429;-60
2022/02/05 00:55:23;;;;;;;23.40;10.93;;;;;;;;;;10370866;28;20030;-59
2022/02/05 01:00:23;;;;;;;20.02;10.45;;;;;;;;;;10372924;28;20025;-59
2022/02/05 01:05:24;;;;;;;19.27;10.17;;;;;;;;;;10373365;28;20029;-59
2022/02/05 01:10:25;;;;;;;24.50;10.75;;;;;;;;;;10373972;28;20514;-59
2022/02/05 01:15:31;;;;;;;17.27;10.93;;;;;;;;;;10372715;28;20049;-59
2022/02/05 01:25:45;;;;;;;20.92;10.20;;;;;;;;;;10372861;28;20385;-59
2022/02/05 01:30:50;;;;;;;20.05;10.02;;;;;;;;;;10373060;28;20121;-59
2022/02/05 01:56:54;;;;;;;16.58;9.60;;;;;;;;;;10370976;28;20038;-59
2022/02/05 02:13:04;;;;;;;14.90;9.43;;;;;;;;;;10369075;28;19972;-59
2022/02/05 02:29:05;;;;;;;19.52;10.15;;;;;;;;;;10370005;28;20072;-59
2022/02/05 02:34:10;;;;;;;16.25;9.77;;;;;;;;;;10370301;28;20037;-58
2022/02/05 02:39:37;;;;;;;15.68;9.82;;;;;;;;;;10369756;28;20025;-60
2022/02/05 02:44:33;;;;;;;13.73;9.70;;;;;;;;;;10369140;28;20037;-59
2022/02/05 02:59:58;;;;;;;;;;;;;;;;;;10367109;28;20050;-59
2022/02/05 03:04:58;;;;;;;13.73;8.90;;;;;;;;;;10366423;28;19945;-59
2022/02/05 03:09:59;;;;;;;14.77;9.65;;;;;;;;;;10369201;28;20053;-58
2022/02/05 03:14:59;;;;;;;15.93;9.80;;;;;;;;;;10368428;28;20045;-59
2022/02/05 03:19:59;;;;;;;17.40;9.33;;;;;;;;;;10368383;28;20963;-59
2022/02/05 03:25:03;;;;;;;15.83;9.27;;;;;;;;;;10368493;28;20465;-59
2022/02/05 03:30:04;;;;;;;13.40;8.98;;;;;;;;;;10367993;28;20025;-59
2022/02/05 03:35:05;;;;;;;17.60;9.88;;;;;;;;;;10368711;28;20117;-58
2022/02/05 03:40:06;;;;;;;12.10;9.00;;;;;;;;;;10366957;28;20561;-58
2022/02/05 03:45:09;;;;;;;14.50;9.93;;;;;;;;;;10367739;28;20026;-58
2022/02/05 03:50:09;;;;;;;20.35;9.52;;;;;;;;;;10368326;28;20056;-59
2022/02/05 03:55:10;;;;;;;17.33;9.50;;;;;;;;;;10367490;28;20529;-58
2022/02/05 04:00:12;;;;;;;11.57;8.35;;;;;;;;;;10368664;28;20044;-57
2022/02/05 04:05:12;;;;;;;16.30;9.15;;;;;;;;;;10368181;28;20480;-57
2022/02/05 04:10:16;;;;;;;13.50;8.50;;;;;;;;;;10372897;28;20049;-57
2022/02/05 04:20:37;;;;;;;;;;;;;;;;;;10376990;28;20030;-58
2022/02/05 04:25:38;;;;;;;15.38;8.20;;;;;;;;;;10374931;28;19913;-58
2022/02/05 04:30:38;;;;;;;14.43;9.10;;;;;;;;;;10374855;28;20044;-58
2022/02/05 04:35:43;;;;;;;16.43;8.47;;;;;;;;;;10374437;28;20467;-58
2022/02/05 04:40:51;;;;;;;12.00;8.10;;;;;;;;;;10375122;28;20095;-58
2022/02/05 05:22:23;;;;;;;14.98;8.05;;;;;;;;;;10369758;28;20112;-59
2022/02/05 05:27:24;;;;;;;11.17;7.43;;;;;;;;;;10372531;28;20552;-59
2022/02/05 05:32:24;;;;;;;10.57;7.93;;;;;;;;;;10372554;28;20440;-59
2022/02/05 05:37:25;;;;;;;10.63;7.30;;;;;;;;;;10372728;28;20041;-59
2022/02/05 05:42:34;;;;;;;14.73;7.57;;;;;;;;;;10371839;28;20034;-58
2022/02/05 05:47:49;;;;;;;17.90;7.93;;;;;;;;;;10372045;28;20518;-59
2022/02/05 05:52:49;;;;;;;10.25;7.78;;;;;;;;;;10372847;28;20061;-58
2022/02/05 05:57:49;;;;;;;9.77;7.30;;;;;;;;;;10371515;28;20066;-58
2022/02/05 06:02:50;;;;;;;16.53;7.23;;;;;;;;;;10371029;28;20524;-58
2022/02/05 06:07:50;;;;;;;11.63;7.15;;;;;;;;;;10370497;28;20030;-57
2022/02/05 06:12:51;;;;;;;9.03;7.07;;;;;;;;;;10370849;28;20048;-57
2022/02/05 06:17:53;;;;;;;12.30;7.97;;;;;;;;;;10367119;28;20476;-58
2022/02/05 06:22:53;;;;;;;9.45;6.90;;;;;;;;;;10370931;28;20029;-58
2022/02/05 06:27:54;;;;;;;8.57;6.63;;;;;;;;;;10366378;28;20398;-58
2022/02/05 06:32:54;;;;;;;11.63;7.37;;;;;;;;;;10392495;23;20974;-58
2022/02/05 06:37:55;;;;;;;11.63;6.78;;;;;;;;;;10329959;28;20462;-58
2022/02/05 06:42:55;;;;;;;9.38;6.75;;;;;;;;;;10329075;28;20026;-59
2022/02/05 06:47:55;;;;;;;9.47;6.47;;;;;;;;;;10329295;28;20030;-59
2022/02/05 06:52:56;;;;;;;8.43;6.40;;;;;;;;;;10329511;28;20433;-59
2022/02/05 06:57:56;;;;;;;12.73;6.93;;;;;;;;;;10328288;28;21030;-60
2022/02/05 07:02:58;;;;;;;10.75;6.35;;;;;;;;;;10328491;28;20482;-59
2022/02/05 07:07:58;;;;;;;9.30;6.07;;;;;;;;;;10328772;28;20034;-59
2022/02/05 07:18:23;;;;;;;10.13;6.63;;;;;;;;;;10328668;28;20030;-59
2022/02/05 07:33:43;;;;;;;8.15;6.28;;;;;;;;;;10323963;28;20460;-59
2022/02/05 07:38:45;;;;;;;10.98;6.65;;;;;;;;;;10327686;28;20109;-59
2022/02/05 07:43:46;;;;;;;8.35;5.80;;;;;;;;;;10328106;28;20166;-58
2022/02/05 07:48:46;;;;;;;8.30;6.20;;;;;;;;;;10328415;28;20189;-59
2022/02/05 07:53:47;;;;;;;9.20;5.47;;;;;;;;;;10327123;28;20525;-59
2022/02/05 07:58:47;;;;;;;8.10;6.13;;;;;;;;;;10327879;28;20813;-59
2022/02/05 08:03:47;;;;;;;12.60;6.63;;;;;;;;;;10327068;28;20030;-59
2022/02/05 08:08:50;;;;;;;26.03;7.30;;;;;;;;;;10324194;28;21030;-60
2022/02/05 08:13:51;;;;;;;21.92;7.30;;;;;;;;;;10325646;28;20467;-60
2022/02/05 08:18:51;;;;;;;29.20;8.60;;;;;;;;;;10326558;28;20105;-61
2022/02/05 08:23:52;;;;;;;24.27;9.95;;;;;;;;;;10327189;28;20409;-60
2022/02/05 08:28:52;;;;;;;30.53;9.33;;;;;;;;;;10326322;28;20133;-61
2022/02/05 08:33:53;;;;;;;34.27;10.47;;;;;;;;;;10320160;28;20547;-62
2022/02/05 08:38:54;;;;;;;30.73;10.23;;;;;;;;;;10326933;28;20080;-60
2022/02/05 08:43:54;;;;;;;25.42;9.30;;;;;;;;;;10326208;28;20030;-61
2022/02/05 08:48:54;;;;;;;27.17;9.30;;;;;;;;;;10294506;28;20108;-60
2022/02/05 08:53:55;;;;;;;34.63;9.73;;;;;;;;;;10296836;28;20599;-64
2022/02/05 08:58:56;;;;;;;26.27;9.43;;;;;;;;;;10298333;28;20472;-67
2022/02/05 09:04:11;;;;;;;23.45;9.70;;;;;;;;;;10297983;28;20092;-61
2022/02/05 09:14:31;;;;;;;20.83;9.10;;;;;;;;;;10297045;28;20026;-63
2022/02/05 09:19:33;;;;;;;31.73;9.48;;;;;;;;;;10297857;28;20489;-60
2022/02/05 09:24:35;;;;;;;27.13;8.63;;;;;;;;;;10297422;28;20347;-59
2022/02/05 09:34:54;;;;;;;;;;;;;;;;;;10293728;28;20453;-62
2022/02/05 09:39:54;;;;;;;19.87;8.30;;;;;;;;;;10293756;28;19914;-64
2022/02/05 09:44:59;;;;;;;21.13;9.32;;;;;;;;;;10294952;28;20073;-59
2022/02/05 09:50:00;;;;;;;26.70;8.32;;;;;;;;;;10294335;28;20026;-60
2022/02/05 09:55:01;;;;;;;24.52;8.20;;;;;;;;;;10295882;28;20048;-61
2022/02/05 10:00:04;;;;;;;31.85;16.90;;;;;;;;;;10296560;28;20028;-62
2022/02/05 10:05:09;;;;;;;27.15;14.05;;;;;;;;;;10317056;28;20034;-62
2022/02/05 10:10:10;;;;;;;23.90;12.02;;;;;;;;;;10322984;28;20532;-61
2022/02/05 10:15:10;;;;;;;16.92;9.43;;;;;;;;;;10328837;28;20025;-62
2022/02/05 10:20:14;;;;;;;24.40;9.02;;;;;;;;;;10330337;28;20030;-62
2022/02/05 10:25:19;;;;;;;30.05;8.30;;;;;;;;;;10344733;28;20062;-63
2022/02/05 10:30:26;;;;;;;25.23;7.82;;;;;;;;;;10330083;28;20046;-63
2022/02/05 10:35:35;;;;;;;68.57;35.60;;;;;;;;;;10327552;28;20034;-62
2022/02/05 10:40:45;;;;;;;99.40;55.35;;;;;;;;;;10326313;28;20045;-63
2022/02/05 10:45:48;;;;;;;82.32;43.05;;;;;;;;;;10325679;28;20034;-63
2022/02/05 10:50:50;;;;;;;60.45;34.58;;;;;;;;;;10329113;28;20053;-63
2022/02/05 11:06:35;;;;;;;35.30;20.35;;;;;;;;;;10328948;28;20022;-62
2022/02/05 11:11:39;;;;;;;33.37;16.97;;;;;;;;;;10328385;28;20470;-61
2022/02/05 11:22:09;;;;;;;23.98;14.73;;;;;;;;;;10319349;28;20042;-62
2022/02/05 11:27:12;;;;;;;22.58;13.80;;;;;;;;;;10327982;28;20386;-62
2022/02/05 11:32:20;;;;;;;27.48;14.40;;;;;;;;;;10325069;28;20246;-64
2022/02/05 11:37:20;;;;;;;25.30;13.18;;;;;;;;;;10326737;28;20455;-63
2022/02/05 11:42:26;;;;;;;23.30;12.50;;;;;;;;;;10324881;28;20034;-62
2022/02/05 11:47:28;;;;;;;26.70;12.10;;;;;;;;;;10328000;28;20523;-60
2022/02/05 11:52:43;;;;;;;17.17;11.50;;;;;;;;;;10324112;28;20030;-60
2022/02/05 11:57:44;;;;;;;18.55;11.13;;;;;;;;;;10327501;28;20093;-64
2022/02/05 12:02:55;;;;;;;23.52;11.43;;;;;;;;;;10326640;28;20038;-60
2022/02/05 12:08:05;;;;;;;17.60;11.13;;;;;;;;;;10325914;28;20058;-60
2022/02/05 12:13:15;;;;;;;23.45;11.13;;;;;;;;;;10325274;28;20052;-61
2022/02/05 12:18:25;;;;;;;20.73;11.07;;;;;;;;;;10326562;28;20064;-60
2022/02/05 12:24:36;;;;;;;22.20;10.95;;;;;;;;;;10325233;28;20097;-65
2022/02/05 12:29:35;;;;;;;22.83;11.30;;;;;;;;;;10333305;28;20137;-61
2022/02/05 12:34:37;;;;;;;24.50;10.35;;;;;;;;;;10334060;28;20141;-62
2022/02/05 12:39:38;;;;;;;27.42;11.25;;;;;;;;;;10333126;28;20466;-62
2022/02/05 12:44:39;;;;;;;27.15;10.57;;;;;;;;;;10334535;28;20030;-62
2022/02/05 12:54:50;;;;;;;23.52;10.85;;;;;;;;;;10328984;28;20023;-61
2022/02/05 12:59:51;;;;;;;23.60;10.38;;;;;;;;;;10332994;28;20121;-61
2022/02/05 13:04:55;;;;;;;22.23;9.75;;;;;;;;;;10331947;28;20478;-61
2022/02/05 13:09:59;;;;;;;22.58;10.40;;;;;;;;;;10330774;28;20023;-61
2022/02/05 13:15:06;;;;;;;24.17;10.18;;;;;;;;;;10332514;28;20042;-61
2022/02/05 13:35:58;;;;;;;16.52;9.35;;;;;;;;;;10330070;28;20023;-61
2022/02/05 13:41:04;;;;;;;15.05;9.43;;;;;;;;;;10329719;28;20390;-60
2022/02/05 13:46:11;;;;;;;13.20;8.57;;;;;;;;;;10331144;28;20092;-63
2022/02/05 13:51:12;;;;;;;16.77;8.70;;;;;;;;;;10312253;28;20038;-62
2022/02/05 13:56:12;;;;;;;20.50;8.73;;;;;;;;;;10325536;28;20026;-62
2022/02/05 14:01:32;;;;;;;14.17;8.40;;;;;;;;;;10331361;28;20485;-63
2022/02/05 14:06:58;;;;;;;14.82;8.25;;;;;;;;;;10330552;28;20033;-61
2022/02/05 14:12:19;;;;;;;20.40;8.52;;;;;;;;;;10330790;28;20029;-61
2022/02/05 14:17:20;;;;;;;13.10;7.95;;;;;;;;;;10330735;28;20091;-60
2022/02/05 14:22:26;;;;;;;13.25;7.45;;;;;;;;;;10330663;28;20031;-62
2022/02/05 14:27:30;;;;;;;14.38;7.93;;;;;;;;;;10327719;28;20479;-66
2022/02/05 14:42:56;;;;;;;10.68;6.93;;;;;;;;;;10329611;28;20042;-71
2022/02/05 14:47:56;;;;;;;12.53;6.90;;;;;;;;;;10329286;28;20478;-64
2022/02/05 14:52:57;;;;;;;13.90;6.83;;;;;;;;;;10329154;28;20030;-61
2022/02/05 14:57:58;;;;;;;22.85;8.35;;;;;;;;;;10326371;28;20037;-62
2022/02/05 15:02:59;;;;;;;13.93;7.63;;;;;;;;;;10325908;28;20146;-64
2022/02/05 15:08:00;;;;;;;9.87;6.77;;;;;;;;;;10328620;28;20110;-65
2022/02/05 15:13:02;;;;;;;14.03;6.83;;;;;;;;;;10328498;28;20453;-68
2022/02/05 15:18:04;;;;;;;14.10;6.80;;;;;;;;;;10328166;28;20045;-64
2022/02/05 15:23:06;;;;;;;13.05;6.75;;;;;;;;;;10328579;28;20034;-62
2022/02/05 15:28:07;;;;;;;9.93;6.55;;;;;;;;;;10327893;28;20544;-64
2022/02/05 15:33:07;;;;;;;11.13;5.93;;;;;;;;;;10327440;28;20043;-66
2022/02/05 15:38:14;;;;;;;11.00;6.63;;;;;;;;;;10328068;28;20114;-66
2022/02/05 15:43:41;;;;;;;10.35;6.68;;;;;;;;;;10327589;28;20468;-65
2022/02/05 15:48:41;;;;;;;14.15;6.22;;;;;;;;;;10327952;28;20054;-67
2022/02/05 15:53:52;;;;;;;9.45;6.15;;;;;;;;;;10327286;28;20536;-63
2022/02/05 15:58:54;;;;;;;10.95;6.65;;;;;;;;;;10327423;28;20058;-63
2022/02/05 16:03:55;;;;;;;10.82;6.25;;;;;;;;;;10332151;28;20034;-63
2022/02/05 16:08:56;;;;;;;6.93;5.83;;;;;;;;;;10331084;28;20026;-64
2022/02/05 16:13:56;;;;;;;11.57;6.45;;;;;;;;;;10334275;28;20531;-63
2022/02/05 16:18:57;;;;;;;10.57;6.53;;;;;;;;;;10335011;28;20035;-63
2022/02/05 16:23:57;;;;;;;10.35;6.25;;;;;;;;;;10335090;28;20053;-63
2022/02/05 16:28:57;;;;;;;9.47;5.77;;;;;;;;;;10334343;28;20038;-64
2022/02/05 16:34:08;;;;;;;13.40;5.93;;;;;;;;;;10332613;28;20938;-65
2022/02/05 16:39:08;;;;;;;7.90;5.50;;;;;;;;;;10335106;28;20544;-66
2022/02/05 16:44:09;;;;;;;8.65;6.22;;;;;;;;;;10333633;28;20486;-65
2022/02/05 16:49:09;;;;;;;11.90;5.88;;;;;;;;;;10335077;28;20061;-65
2022/02/05 16:54:10;;;;;;;11.43;5.78;;;;;;;;;;10333765;28;20398;-63
2022/02/05 16:59:11;;;;;;;10.48;5.78;;;;;;;;;;10334734;28;20034;-65
2022/02/05 17:04:14;;;;;;;25.27;6.88;;;;;;;;;;10334363;28;20030;-67
2022/02/05 17:09:15;;;;;;;10.10;6.13;;;;;;;;;;10330101;28;20030;-62
2022/02/05 17:14:19;;;;;;;9.30;5.55;;;;;;;;;;10331957;28;20390;-64
2022/02/05 17:19:19;;;;;;;11.75;5.97;;;;;;;;;;10330069;28;20035;-63
2022/02/05 17:24:20;;;;;;;8.47;5.57;;;;;;;;;;10332025;28;20030;-64
2022/02/05 17:29:20;;;;;;;9.17;5.37;;;;;;;;;;10332880;28;20452;-66
2022/02/05 17:34:21;;;;;;;9.57;5.27;;;;;;;;;;10332318;28;20853;-65
2022/02/05 17:39:21;;;;;;;12.15;5.65;;;;;;;;;;10332037;28;20031;-65
2022/02/05 17:44:22;;;;;;;7.80;5.57;;;;;;;;;;10331819;28;20054;-63
2022/02/05 17:49:22;;;;;;;13.38;5.38;;;;;;;;;;10331975;28;20519;-65
2022/02/05 17:54:22;;;;;;;9.23;5.57;;;;;;;;;;10331319;28;20048;-62
2022/02/05 17:59:23;;;;;;;9.90;5.30;;;;;;;;;;10331161;28;20440;-61
2022/02/05 18:04:23;;;;;;;10.57;5.83;;;;;;;;;;10331473;28;20056;-60
2022/02/05 18:14:35;;;;;;;8.57;5.95;;;;;;;;;;10330802;28;20029;-61
2022/02/05 18:19:35;;;;;;;;;;;;;;;;;;10328635;28;20026;-60
2022/02/05 18:24:36;;;;;;;8.60;5.65;;;;;;;;;;10327303;28;19920;-60
2022/02/05 18:29:36;;;;;;;10.37;6.03;;;;;;;;;;10329432;28;20133;-61
2022/02/05 18:34:37;;;;;;;10.48;5.80;;;;;;;;;;10329748;28;20440;-60
2022/02/05 18:39:46;;;;;;;12.35;5.95;;;;;;;;;;10329189;28;20022;-63
2022/02/05 18:44:48;;;;;;;10.75;6.25;;;;;;;;;;10329104;28;20037;-62
2022/02/05 18:49:48;;;;;;;10.10;6.15;;;;;;;;;;10328700;28;20026;-61
2022/02/05 18:54:49;;;;;;;13.25;5.95;;;;;;;;;;10327762;28;20030;-61
2022/02/05 18:59:53;;;;;;;11.20;5.90;;;;;;;;;;10328612;28;20033;-61
2022/02/05 19:20:35;;;;;;;10.95;6.28;;;;;;;;;;10327126;28;20030;-61
2022/02/05 19:25:36;;;;;;;11.80;6.43;;;;;;;;;;10322631;28;20030;-61
2022/02/05 19:30:40;;;;;;;12.25;6.53;;;;;;;;;;10327068;28;20042;-61
2022/02/05 19:35:40;;;;;;;15.52;7.90;;;;;;;;;;10324160;28;20529;-60
2022/02/05 19:40:43;;;;;;;12.55;7.38;;;;;;;;;;10327884;28;20072;-61
2022/02/05 19:45:46;;;;;;;14.52;8.05;;;;;;;;;;10328203;28;20042;-61
2022/02/05 19:50:46;;;;;;;18.35;7.78;;;;;;;;;;10326168;28;20026;-60
2022/02/05 19:55:47;;;;;;;11.40;7.40;;;;;;;;;;10328361;28;20026;-60
2022/02/05 20:00:47;;;;;;;16.48;7.85;;;;;;;;;;10328638;28;20025;-60
2022/02/05 20:05:52;;;;;;;18.90;8.30;;;;;;;;;;10327376;28;20467;-60
2022/02/05 20:10:54;;;;;;;15.93;8.23;;;;;;;;;;10327351;28;20173;-60
2022/02/05 20:15:56;;;;;;;11.45;8.40;;;;;;;;;;10327904;28;20030;-60
2022/02/05 20:20:59;;;;;;;15.82;8.85;;;;;;;;;;10326928;28;20052;-60
2022/02/05 20:25:59;;;;;;;17.35;8.82;;;;;;;;;;10326998;28;20106;-60
2022/02/05 20:31:00;;;;;;;13.20;8.98;;;;;;;;;;10326955;28;20050;-62
2022/02/05 20:36:01;;;;;;;23.80;8.97;;;;;;;;;;10323254;28;20064;-60
2022/02/05 20:41:01;;;;;;;19.17;9.57;;;;;;;;;;10326643;28;20448;-60
2022/02/05 20:46:02;;;;;;;19.17;10.38;;;;;;;;;;10323777;28;20037;-60
2022/02/05 20:51:06;;;;;;;19.33;10.27;;;;;;;;;;10334534;28;20398;-60
2022/02/05 20:56:07;;;;;;;19.67;10.95;;;;;;;;;;10333938;28;20034;-60
2022/02/05 21:01:08;;;;;;;18.63;10.63;;;;;;;;;;10333058;28;20243;-60
2022/02/05 21:06:08;;;;;;;17.33;9.55;;;;;;;;;;10333971;28;20125;-60
2022/02/05 21:11:09;;;;;;;24.08;10.75;;;;;;;;;;10333227;28;20042;-60
2022/02/05 21:16:09;;;;;;;18.23;10.27;;;;;;;;;;10332332;28;20039;-60
2022/02/05 21:21:11;;;;;;;19.00;11.35;;;;;;;;;;10333922;28;20086;-60
2022/02/05 21:26:12;;;;;;;24.25;11.77;;;;;;;;;;10332849;28;20077;-60
2022/02/05 21:31:23;;;;;;;30.30;11.90;;;;;;;;;;10331785;28;20560;-60
2022/02/05 21:36:23;;;;;;;23.33;11.02;;;;;;;;;;10332015;28;20023;-60
2022/02/05 21:41:24;;;;;;;22.38;12.10;;;;;;;;;;10332064;28;20030;-60
2022/02/05 21:46:25;;;;;;;21.08;11.82;;;;;;;;;;10328887;28;20026;-60
2022/02/05 21:51:32;;;;;;;22.15;11.82;;;;;;;;;;10328347;28;20080;-60
2022/02/05 21:56:40;;;;;;;23.60;12.73;;;;;;;;;;10331964;28;20033;-60
2022/02/05 22:01:43;;;;;;;19.67;12.60;;;;;;;;;;10330850;28;20054;-60
2022/02/05 22:06:43;;;;;;;21.50;13.07;;;;;;;;;;10330703;28;20371;-60
2022/02/05 22:11:48;;;;;;;18.67;12.97;;;;;;;;;;10331200;28;20027;-60
2022/02/05 22:16:49;;;;;;;24.65;13.57;;;;;;;;;;10330487;28;20432;-61
2022/02/05 22:21:51;;;;;;;27.33;13.85;;;;;;;;;;10327732;28;20033;-61
2022/02/05 22:26:51;;;;;;;23.00;12.57;;;;;;;;;;10328720;28;20072;-60
2022/02/05 22:31:52;;;;;;;28.25;13.18;;;;;;;;;;10329899;28;20568;-62
2022/02/05 22:36:57;;;;;;;25.98;12.70;;;;;;;;;;10330071;28;20057;-60
2022/02/05 22:41:57;;;;;;;42.53;13.65;;;;;;;;;;10329199;28;20043;-59
2022/02/05 22:46:58;;;;;;;36.67;15.65;;;;;;;;;;10329473;28;20034;-60
2022/02/05 22:51:58;;;;;;;29.05;13.93;;;;;;;;;;10326552;28;20061;-62
2022/02/05 22:56:59;;;;;;;27.23;14.60;;;;;;;;;;10326301;28;20549;-61
2022/02/05 23:02:00;;;;;;;30.23;14.30;;;;;;;;;;10329255;28;20522;-60
2022/02/05 23:07:01;;;;;;;29.23;14.40;;;;;;;;;;10344119;28;20468;-60
2022/02/05 23:43:49;;;;;;;31.73;13.73;;;;;;;;;;10325601;28;20023;-59
2022/02/05 23:48:50;;;;;;;26.33;13.77;;;;;;;;;;10327121;28;20436;-59
2022/02/05 23:53:50;;;;;;;26.60;12.53;;;;;;;;;;10327032;28;20781;-59
2022/02/05 23:58:51;;;;;;;22.10;12.67;;;;;;;;;;10320944;28;20502;-60
